Time;durP1;ratioP1;P1;durP2;ratioP2;P2;SDS_P1;SDS_P2;PMS_P1;PMS_P2;Temp;Humidity;BMP_temperature;BMP_pressure;BME280_temperature;BME280_humidity;BME280_pressure;Samples;Min_cycle;Max_cycle;Signal;HPM_P1;HPM_P2
2022/09/19 00:02:08;;;;;;;11.50;3.08;;;;;;;11.04;nan;101746.63;5037154;28;20108;-59
2022/09/19 00:04:33;;;;;;;15.13;3.08;;;;;;;11.04;nan;101736.06;5046964;28;20100;-57
2022/09/19 00:06:59;;;;;;;19.75;2.60;;;;;;;11.01;nan;101738.78;5042814;28;20032;-59
2022/09/19 00:09:30;;;;;;;17.88;2.60;;;;;;;10.95;nan;101757.31;5039914;28;20037;-57
2022/09/19 00:11:56;;;;;;;;;;;;;;;10.89;nan;101739.88;5050161;28;20128;-60
2022/09/19 00:14:24;;;;;;;12.07;2.10;;;;;;;10.82;nan;101750.56;5037457;28;19967;-63
2022/09/19 00:16:55;;;;;;;11.57;2.50;;;;;;;10.33;nan;101680.41;5044498;28;20036;-58
2022/09/19 00:19:21;;;;;;;12.20;2.80;;;;;;;10.28;nan;101692.75;5045447;28;20558;-58
2022/09/19 00:21:47;;;;;;;15.00;2.63;;;;;;;10.44;nan;101735.47;5036741;28;20080;-56
2022/09/19 00:27:02;;;;;;;19.80;2.75;;;;;;;10.32;nan;101730.41;5043852;28;20051;-61
2022/09/19 00:29:27;;;;;;;12.90;2.60;;;;;;;9.96;nan;101685.38;5048630;28;20064;-58
2022/09/19 00:31:53;;;;;;;17.70;3.10;;;;;;;10.02;nan;101716.84;5033037;28;20033;-57
2022/09/19 00:34:19;;;;;;;11.27;2.28;;;;;;;10.18;nan;101749.09;5020043;28;20033;-56
2022/09/19 00:36:44;;;;;;;13.13;2.47;;;;;;;10.11;nan;101748.28;5050418;28;20040;-59
2022/09/19 00:39:12;;;;;;;7.80;2.00;;;;;;;10.11;nan;101761.44;5044852;28;20120;-58
2022/09/19 00:41:38;;;;;;;9.55;2.00;;;;;;;9.79;nan;101716.34;5037655;28;20056;-58
2022/09/19 00:44:25;;;;;;;11.20;2.47;;;;;;;10.04;nan;101767.66;5031142;28;20041;-60
2022/09/19 00:46:55;;;;;;;11.02;2.20;;;;;;;9.75;nan;101703.28;5041887;28;20068;-59
2022/09/19 00:49:22;;;;;;;10.70;1.92;;;;;;;10.22;nan;101763.91;5051562;28;20037;-57
2022/09/19 00:51:49;;;;;;;15.32;2.30;;;;;;;10.42;nan;101779.38;5033410;28;20037;-59
2022/09/19 00:54:18;;;;;;;12.05;2.08;;;;;;;10.21;nan;101706.06;5048738;28;20041;-55
2022/09/19 00:56:46;;;;;;;14.38;2.75;;;;;;;10.31;nan;101697.97;5039769;28;20427;-57
2022/09/19 00:59:11;;;;;;;12.20;2.05;;;;;;;10.65;nan;101757.00;5051355;28;20036;-57
2022/09/19 01:01:38;;;;;;;11.25;1.83;;;;;;;10.45;nan;101703.84;5052939;28;20040;-62
2022/09/19 01:04:14;;;;;;;13.77;2.70;;;;;;;10.53;nan;101716.91;5051239;28;20048;-56
2022/09/19 01:07:04;;;;;;;12.95;2.30;;;;;;;10.88;nan;101777.69;5045207;28;20392;-56
2022/09/19 01:09:36;;;;;;;11.90;2.92;;;;;;;10.91;nan;101780.25;5032921;28;20061;-58
2022/09/19 01:12:46;;;;;;;12.27;2.20;;;;;;;11.03;nan;101773.88;5031336;28;20084;-56
2022/09/19 01:15:29;;;;;;;9.40;1.80;;;;;;;10.77;nan;101721.69;5032491;28;20045;-57
2022/09/19 01:17:57;;;;;;;13.05;3.15;;;;;;;10.96;nan;101732.72;5031425;28;20033;-54
2022/09/19 01:20:42;;;;;;;13.60;2.60;;;;;;;11.24;nan;101786.59;5031223;28;20449;-59
2022/09/19 01:23:32;;;;;;;9.02;2.05;;;;;;;11.16;nan;101757.78;5032685;28;20029;-60
2022/09/19 01:26:09;;;;;;;13.93;2.08;;;;;;;11.37;nan;101787.25;5032657;28;20029;-59
2022/09/19 01:28:51;;;;;;;10.77;1.95;;;;;;;11.16;nan;101736.72;5031490;28;20543;-57
2022/09/19 01:31:22;;;;;;;7.63;1.83;;;;;;;11.44;nan;101800.25;5031372;28;20025;-55
2022/09/19 01:34:05;;;;;;;;;;;;;;;11.35;nan;101796.97;5033184;28;20111;-58
2022/09/19 01:36:34;;;;;;;9.90;1.88;;;;;;;11.26;nan;101801.53;5031274;28;19913;-59
2022/09/19 01:39:02;;;;;;;9.50;2.22;;;;;;;10.81;nan;101735.66;5030942;28;20102;-60
2022/09/19 01:41:28;;;;;;;6.03;1.50;;;;;;;10.68;nan;101749.06;5046437;28;20040;-58
2022/09/19 01:43:54;;;;;;;6.85;1.92;;;;;;;10.86;nan;101789.13;5051700;28;20040;-58
2022/09/19 01:46:52;;;;;;;8.88;1.75;;;;;;;10.77;nan;101808.59;5047594;28;20530;-60
2022/09/19 01:49:34;;;;;;;7.32;1.60;;;;;;;10.63;nan;101806.19;5051039;28;20104;-57
2022/09/19 01:52:08;;;;;;;8.13;1.95;;;;;;;10.43;nan;101795.13;5042603;28;20469;-57
2022/09/19 01:54:54;;;;;;;15.18;2.10;;;;;;;10.41;nan;101804.84;5046144;28;20476;-60
2022/09/19 01:57:36;;;;;;;7.90;1.50;;;;;;;10.32;nan;101814.63;5034038;28;20284;-60
2022/09/19 02:00:14;;;;;;;8.43;1.58;;;;;;;9.97;nan;101763.41;5029788;28;20069;-58
2022/09/19 02:03:04;;;;;;;12.00;2.05;;;;;;;9.83;nan;101767.13;5045785;28;20059;-56
2022/09/19 02:05:36;;;;;;;9.60;2.28;;;;;;;9.98;nan;101811.63;5037369;28;20029;-59
2022/09/19 02:08:28;;;;;;;7.68;1.92;;;;;;;9.87;nan;101805.63;5051736;28;20048;-56
2022/09/19 02:10:56;;;;;;;12.98;1.85;;;;;;;9.75;nan;101814.53;5050406;28;20037;-55
2022/09/19 02:13:24;;;;;;;11.98;2.20;;;;;;;8.82;nan;101653.75;5047108;28;20493;-54
2022/09/19 02:15:53;;;;;;;9.05;1.48;;;;;;;9.47;nan;101786.91;5038605;28;20033;-58
2022/09/19 02:18:31;;;;;;;7.15;1.80;;;;;;;9.50;nan;101800.88;5054616;28;20120;-58
2022/09/19 02:21:02;;;;;;;6.30;1.45;;;;;;;9.40;nan;101786.09;5048030;28;20373;-57
2022/09/19 02:23:29;;;;;;;12.70;2.72;;;;;;;9.36;nan;101783.53;5036858;28;20496;-58
2022/09/19 02:25:56;;;;;;;7.32;1.50;;;;;;;9.40;nan;101796.59;5058206;28;20026;-55
2022/09/19 02:28:25;;;;;;;8.73;1.60;;;;;;;9.36;nan;101784.41;5042701;28;20055;-56
2022/09/19 02:30:51;;;;;;;8.25;1.95;;;;;;;9.03;nan;101733.16;5050197;28;20033;-59
2022/09/19 02:33:17;;;;;;;11.13;2.00;;;;;;;8.98;nan;101727.09;5033593;28;20462;-59
2022/09/19 02:35:46;;;;;;;8.35;1.88;;;;;;;9.35;nan;101816.81;5050265;28;20037;-58
2022/09/19 02:38:23;;;;;;;9.32;1.60;;;;;;;9.33;nan;101807.22;5051561;28;20498;-61
2022/09/19 02:41:08;;;;;;;7.68;1.65;;;;;;;8.88;nan;101735.06;5035098;28;20037;-59
2022/09/19 02:43:46;;;;;;;9.23;2.13;;;;;;;9.27;nan;101805.53;5036148;28;20029;-60
2022/09/19 02:46:26;;;;;;;9.63;1.40;;;;;;;9.31;nan;101791.47;5059004;28;20029;-59
2022/09/19 02:49:13;;;;;;;9.48;2.33;;;;;;;9.40;nan;101790.47;5034529;28;20037;-58
2022/09/19 02:51:43;;;;;;;8.73;1.63;;;;;;;9.32;nan;101768.69;5060136;28;20279;-59
2022/09/19 02:54:14;;;;;;;7.00;1.42;;;;;;;9.10;nan;101727.81;5041012;28;20035;-54
2022/09/19 02:56:41;;;;;;;7.65;1.48;;;;;;;9.40;nan;101785.22;5050214;28;20033;-59
2022/09/19 02:59:22;;;;;;;11.27;2.40;;;;;;;9.37;nan;101791.38;5047780;28;20032;-59
2022/09/19 03:01:54;;;;;;;13.07;1.88;;;;;;;9.11;nan;101747.97;5038014;28;20060;-57
2022/09/19 03:04:24;;;;;;;16.05;2.67;;;;;;;9.18;nan;101761.00;5046682;28;20033;-58
2022/09/19 03:06:58;;;;;;;5.00;1.73;;;;;;;9.20;nan;101771.47;5046356;28;20425;-58
2022/09/19 03:09:27;;;;;;;9.32;1.80;;;;;;;8.90;nan;101723.66;5037983;28;20480;-59
2022/09/19 03:12:08;;;;;;;8.95;2.35;;;;;;;9.24;nan;101776.69;5053287;28;20128;-57
2022/09/19 03:14:35;;;;;;;10.60;2.03;;;;;;;9.02;nan;101731.41;5055547;28;20060;-55
2022/09/19 03:17:01;;;;;;;5.68;1.35;;;;;;;9.00;nan;101717.44;5049905;28;20094;-56
2022/09/19 03:19:27;;;;;;;10.80;1.83;;;;;;;8.99;nan;101720.94;5026572;28;20464;-56
2022/09/19 03:21:53;;;;;;;9.23;1.52;;;;;;;8.92;nan;101707.91;5054658;28;20036;-58
2022/09/19 03:24:19;;;;;;;12.20;1.83;;;;;;;9.36;nan;101789.66;5042319;28;20060;-59
2022/09/19 03:26:44;;;;;;;9.45;1.70;;;;;;;9.35;nan;101797.56;5048851;28;20384;-57
2022/09/19 03:29:11;;;;;;;13.48;2.72;;;;;;;8.89;nan;101719.31;5037782;28;20040;-57
2022/09/19 03:31:36;;;;;;;11.15;2.60;;;;;;;8.95;nan;101737.63;5047997;28;20038;-57
2022/09/19 03:34:02;;;;;;;8.77;1.73;;;;;;;9.31;nan;101794.09;5034833;28;20034;-61
2022/09/19 03:36:33;;;;;;;9.38;2.05;;;;;;;9.34;nan;101798.47;5047959;28;20048;-59
2022/09/19 03:39:01;;;;;;;6.93;1.75;;;;;;;9.26;nan;101785.41;5037659;28;20038;-55
2022/09/19 03:41:27;;;;;;;12.68;1.77;;;;;;;9.08;nan;101754.09;5064480;28;20026;-57
2022/09/19 03:43:53;;;;;;;7.75;1.75;;;;;;;9.47;nan;101800.03;5042649;28;20049;-55
2022/09/19 03:46:20;;;;;;;13.27;2.03;;;;;;;9.51;nan;101791.25;5041842;28;20439;-60
2022/09/19 03:48:46;;;;;;;8.57;1.52;;;;;;;9.27;nan;101734.59;5048847;28;20120;-60
2022/09/19 03:51:13;;;;;;;9.27;1.50;;;;;;;9.80;nan;101809.25;5052759;28;20130;-60
2022/09/19 03:53:38;;;;;;;10.60;2.00;;;;;;;10.10;nan;101800.91;5062825;28;20033;-55
2022/09/19 03:56:04;;;;;;;9.68;1.67;;;;;;;10.26;nan;101820.88;5043940;28;20495;-54
2022/09/19 03:58:30;;;;;;;5.68;1.27;;;;;;;10.42;nan;101819.72;5052449;28;20505;-56
2022/09/19 04:00:59;;;;;;;8.43;1.30;;;;;;;10.65;nan;101841.25;5052826;28;20083;-57
2022/09/19 04:03:25;;;;;;;5.97;1.20;;;;;;;10.44;nan;101785.50;5038721;28;20025;-57
2022/09/19 04:05:53;;;;;;;7.68;1.40;;;;;;;10.43;nan;101786.38;5045841;28;20116;-58
2022/09/19 04:08:19;;;;;;;9.07;1.88;;;;;;;10.81;nan;101843.63;5041149;28;20429;-59
2022/09/19 04:10:44;;;;;;;6.15;1.50;;;;;;;10.39;nan;101777.66;5049440;28;20396;-56
2022/09/19 04:13:10;;;;;;;15.90;2.83;;;;;;;10.60;nan;101824.69;5037058;28;20049;-59
2022/09/19 04:15:36;;;;;;;10.70;1.58;;;;;;;10.64;nan;101838.66;5048963;28;20030;-58
2022/09/19 04:18:03;;;;;;;7.95;1.98;;;;;;;10.11;nan;101763.19;5032245;28;20487;-56
2022/09/19 04:20:30;;;;;;;7.05;1.42;;;;;;;10.04;nan;101772.91;5034792;28;20029;-56
2022/09/19 04:23:00;;;;;;;10.43;2.42;;;;;;;9.97;nan;101783.56;5050743;28;20086;-56
2022/09/19 04:25:29;;;;;;;6.25;1.55;;;;;;;10.13;nan;101825.44;5048574;28;20040;-58
2022/09/19 04:27:55;;;;;;;10.73;1.60;;;;;;;9.90;nan;101792.44;5040972;28;20112;-55
2022/09/19 04:30:23;;;;;;;11.85;1.77;;;;;;;10.07;nan;101829.88;5041025;28;20120;-54
2022/09/19 04:32:50;;;;;;;5.45;1.30;;;;;;;10.15;nan;101846.47;5049505;28;20128;-58
2022/09/19 04:35:15;;;;;;;6.82;1.67;;;;;;;10.20;nan;101849.91;5033326;28;20029;-58
2022/09/19 04:37:41;;;;;;;6.95;1.42;;;;;;;10.07;nan;101832.50;5038857;28;20048;-58
2022/09/19 04:40:06;;;;;;;7.80;1.60;;;;;;;9.78;nan;101792.63;5042685;28;20052;-57
2022/09/19 04:42:34;;;;;;;6.13;1.73;;;;;;;9.72;nan;101790.94;5046730;28;20067;-58
2022/09/19 04:44:59;;;;;;;7.60;1.48;;;;;;;9.72;nan;101796.19;5036563;28;20041;-58
2022/09/19 04:47:25;;;;;;;10.43;1.52;;;;;;;9.63;nan;101791.09;5048375;28;20042;-59
2022/09/19 04:49:50;;;;;;;8.20;1.45;;;;;;;9.54;nan;101789.41;5041246;28;20033;-58
2022/09/19 04:52:15;;;;;;;8.25;1.75;;;;;;;9.87;nan;101859.09;5041642;28;20457;-59
2022/09/19 04:54:41;;;;;;;11.25;1.30;;;;;;;9.45;nan;101807.97;5047917;28;20495;-58
2022/09/19 04:57:07;;;;;;;11.82;2.38;;;;;;;9.64;nan;101837.50;5036150;28;20041;-60
2022/09/19 04:59:33;;;;;;;7.68;1.58;;;;;;;9.78;nan;101856.59;5039096;28;20031;-56
2022/09/19 05:02:00;;;;;;;12.13;2.30;;;;;;;9.83;nan;101846.03;5058656;28;20540;-60
2022/09/19 05:04:25;;;;;;;7.68;1.85;;;;;;;9.57;nan;101799.03;5044616;28;20268;-56
2022/09/19 05:06:54;;;;;;;8.63;2.50;;;;;;;9.91;nan;101852.91;5036058;28;20370;-56
2022/09/19 05:09:22;;;;;;;8.95;1.73;;;;;;;9.50;nan;101795.63;5063455;28;20109;-57
2022/09/19 05:11:47;;;;;;;8.00;1.70;;;;;;;9.81;nan;101850.41;5040174;28;20496;-55
2022/09/19 05:14:13;;;;;;;7.65;1.42;;;;;;;9.94;nan;101867.78;5041277;28;20048;-55
2022/09/19 05:16:42;;;;;;;13.15;1.75;;;;;;;9.67;nan;101799.78;5047388;28;20029;-56
2022/09/19 05:19:08;;;;;;;8.77;1.65;;;;;;;10.06;nan;101843.94;5035897;28;20049;-57
2022/09/19 05:21:34;;;;;;;10.18;1.85;;;;;;;10.25;nan;101865.59;5046471;28;20033;-54
2022/09/19 05:24:00;;;;;;;11.27;1.90;;;;;;;10.33;nan;101858.50;5041725;28;20025;-58
2022/09/19 05:26:26;;;;;;;12.02;2.10;;;;;;;9.99;nan;101776.53;5054576;28;20036;-58
2022/09/19 05:28:51;;;;;;;19.55;2.75;;;;;;;10.54;nan;101866.91;5048831;28;20470;-57
2022/09/19 05:31:18;;;;;;;11.23;2.05;;;;;;;9.90;nan;101752.97;5034947;28;20041;-56
2022/09/19 05:33:43;;;;;;;9.95;2.20;;;;;;;10.61;nan;101876.47;5060234;28;20038;-53
2022/09/19 05:36:09;;;;;;;10.10;1.65;;;;;;;10.16;nan;101792.94;5041842;28;20131;-57
2022/09/19 05:38:34;;;;;;;11.40;2.42;;;;;;;10.62;nan;101867.66;5037777;28;20038;-54
2022/09/19 05:41:01;;;;;;;12.75;1.85;;;;;;;10.27;nan;101804.19;5048433;28;20040;-56
2022/09/19 05:43:27;;;;;;;5.93;1.63;;;;;;;10.31;nan;101811.13;5037103;28;20029;-55
2022/09/19 05:45:54;;;;;;;9.77;2.35;;;;;;;10.81;nan;101888.41;5050631;28;20151;-57
2022/09/19 05:48:20;;;;;;;5.88;1.77;;;;;;;10.93;nan;101886.44;5042233;28;20095;-57
2022/09/19 05:50:47;;;;;;;9.63;1.95;;;;;;;11.09;nan;101877.38;5046597;28;20091;-59
2022/09/19 05:55:57;;;;;;;6.55;1.60;;;;;;;11.06;nan;101837.06;5051036;28;20416;-60
2022/09/19 05:58:24;;;;;;;10.63;1.95;;;;;;;11.15;nan;101835.09;5051843;28;20053;-57
2022/09/19 06:00:50;;;;;;;6.20;1.27;;;;;;;11.63;nan;101893.03;5035391;28;20051;-57
2022/09/19 06:03:16;;;;;;;8.48;2.33;;;;;;;11.70;nan;101895.53;5050405;28;20037;-57
2022/09/19 06:05:43;;;;;;;6.75;1.33;;;;;;;11.72;nan;101890.25;5050560;28;20036;-59
2022/09/19 06:08:09;;;;;;;9.82;1.83;;;;;;;11.80;nan;101907.66;5050236;28;20037;-52
2022/09/19 06:10:39;;;;;;;9.50;1.58;;;;;;;11.56;nan;101852.72;5049966;28;20048;-61
2022/09/19 06:13:06;;;;;;;9.40;1.70;;;;;;;11.50;nan;101830.91;5035067;28;20494;-60
2022/09/19 06:15:31;;;;;;;10.80;2.22;;;;;;;11.96;nan;101923.19;5047114;28;20035;-60
2022/09/19 06:17:57;;;;;;;6.25;1.70;;;;;;;12.00;nan;101924.84;5040599;28;20407;-61
2022/09/19 06:20:23;;;;;;;5.80;2.00;;;;;;;11.59;nan;101852.69;5039019;28;20037;-60
2022/09/19 06:22:49;;;;;;;8.05;1.80;;;;;;;12.01;nan;101921.31;5047942;28;20040;-59
2022/09/19 06:25:15;;;;;;;4.60;1.30;;;;;;;11.90;nan;101908.34;5035077;28;20021;-60
2022/09/19 06:27:43;;;;;;;9.63;1.55;;;;;;;11.47;nan;101854.72;5044342;28;20104;-60
2022/09/19 06:30:09;;;;;;;9.85;2.10;;;;;;;11.53;nan;101875.69;5024749;28;20037;-62
2022/09/19 06:32:37;;;;;;;8.80;1.70;;;;;;;11.80;nan;101931.41;5037217;28;20151;-60
2022/09/19 06:35:03;;;;;;;7.43;1.90;;;;;;;11.78;nan;101930.56;5034281;28;20045;-59
2022/09/19 06:37:28;;;;;;;9.25;1.90;;;;;;;11.72;nan;101933.34;5045872;28;20080;-59
2022/09/19 06:39:53;;;;;;;11.38;2.78;;;;;;;11.72;nan;101935.97;5031643;28;20029;-60
2022/09/19 06:42:19;;;;;;;6.88;2.92;;;;;;;11.69;nan;101938.66;5043524;28;20029;-60
2022/09/19 06:44:44;;;;;;;7.18;1.30;;;;;;;11.74;nan;101938.56;5039483;28;20037;-59
2022/09/19 06:47:09;;;;;;;5.35;1.33;;;;;;;11.76;nan;101926.25;5049629;28;20399;-59
2022/09/19 06:49:35;;;;;;;4.80;1.45;;;;;;;11.60;nan;101880.78;5040891;28;20029;-59
2022/09/19 06:52:02;;;;;;;11.52;1.75;;;;;;;11.71;nan;101886.75;5045142;28;20055;-60
2022/09/19 06:54:27;;;;;;;6.25;1.50;;;;;;;11.84;nan;101892.66;5047818;28;20033;-61
2022/09/19 06:56:53;;;;;;;6.72;2.15;;;;;;;12.26;nan;101938.34;5053660;28;20116;-60
2022/09/19 06:59:18;;;;;;;10.32;1.80;;;;;;;12.47;nan;101945.78;5050802;28;20388;-59
2022/09/19 07:01:45;;;;;;;5.85;1.50;;;;;;;12.58;nan;101956.13;5041593;28;20076;-60
2022/09/19 07:04:11;;;;;;;9.98;2.20;;;;;;;12.77;nan;101954.78;5042934;28;20080;-59
2022/09/19 07:06:36;;;;;;;11.00;1.90;;;;;;;12.69;nan;101902.16;5047716;28;20498;-59
2022/09/19 07:09:03;;;;;;;5.75;1.67;;;;;;;12.86;nan;101894.69;5041058;28;20047;-60
2022/09/19 07:11:28;;;;;;;9.07;1.30;;;;;;;13.53;nan;101948.47;5037227;28;20102;-59
2022/09/19 07:13:54;;;;;;;14.45;2.97;;;;;;;14.05;nan;101977.00;5059907;28;20548;-62
2022/09/19 07:16:19;;;;;;;9.57;2.13;;;;;;;14.27;nan;101988.72;5045491;28;20120;-61
2022/09/19 07:18:46;;;;;;;10.48;1.35;;;;;;;14.25;nan;101969.31;5048112;28;20072;-60
2022/09/19 07:21:11;;;;;;;7.93;1.65;;;;;;;14.07;nan;101957.50;5032463;28;20064;-60
2022/09/19 07:23:37;;;;;;;8.10;1.73;;;;;;;14.23;nan;102004.72;5038043;28;20087;-60
2022/09/19 07:26:03;;;;;;;8.70;1.70;;;;;;;13.96;nan;101951.66;5053723;28;20091;-61
2022/09/19 07:28:28;;;;;;;8.27;1.40;;;;;;;14.16;nan;102003.16;5051734;28;20037;-61
2022/09/19 07:30:56;;;;;;;9.93;1.83;;;;;;;13.89;nan;101950.06;5054878;28;20044;-60
2022/09/19 07:33:23;;;;;;;3.80;1.25;;;;;;;14.18;nan;102002.22;5035157;28;20128;-61
2022/09/19 07:35:50;;;;;;;5.80;1.70;;;;;;;14.06;nan;101976.97;5041440;28;20033;-59
2022/09/19 07:38:17;;;;;;;11.30;1.58;;;;;;;13.98;nan;101960.41;5048733;28;20041;-59
2022/09/19 07:40:43;;;;;;;12.00;2.33;;;;;;;14.02;nan;101967.38;5033531;28;20057;-60
2022/09/19 07:43:10;;;;;;;8.18;1.45;;;;;;;14.23;nan;101988.81;5016067;28;20073;-61
2022/09/19 07:45:36;;;;;;;10.07;1.80;;;;;;;14.26;nan;102001.97;5050730;28;20083;-61
2022/09/19 07:48:03;;;;;;;7.97;2.35;;;;;;;14.09;nan;101978.66;5051943;28;20094;-60
2022/09/19 07:50:29;;;;;;;5.15;1.30;;;;;;;14.25;nan;102016.13;5037398;28;20036;-61
2022/09/19 07:52:58;;;;;;;10.20;2.35;;;;;;;14.25;nan;102005.53;5049212;28;20036;-59
2022/09/19 07:55:24;;;;;;;5.38;1.30;;;;;;;14.34;nan;102010.59;5033023;28;20045;-60
2022/09/19 07:57:50;;;;;;;8.30;1.85;;;;;;;14.34;nan;102005.31;5031469;28;20080;-62
2022/09/19 08:00:16;;;;;;;7.10;1.67;;;;;;;14.65;nan;102016.75;5032260;28;20034;-61
2022/09/19 08:02:42;;;;;;;9.07;1.73;;;;;;;15.38;nan;102009.91;5032131;28;20037;-61
2022/09/19 08:05:07;;;;;;;5.43;1.42;;;;;;;16.04;nan;102025.31;5031102;28;20083;-61
2022/09/19 08:07:33;;;;;;;5.40;1.55;;;;;;;16.60;nan;102036.53;5031766;28;20069;-61
2022/09/19 08:09:59;;;;;;;6.97;1.60;;;;;;;17.01;nan;102037.56;5032608;28;20044;-62
2022/09/19 08:12:25;;;;;;;8.02;1.70;;;;;;;17.04;nan;102048.09;5032436;28;20132;-59
2022/09/19 08:14:50;;;;;;;7.93;1.23;;;;;;;16.88;nan;102042.50;5032334;28;20449;-62
2022/09/19 08:17:15;;;;;;;9.23;1.60;;;;;;;16.61;nan;102014.31;5032562;28;20029;-61
2022/09/19 08:19:41;;;;;;;7.38;1.45;;;;;;;17.28;nan;102065.72;5030763;28;20038;-60
2022/09/19 08:22:06;;;;;;;4.57;1.23;;;;;;;17.25;nan;102062.31;5030146;28;20037;-61
2022/09/19 08:24:31;;;;;;;6.32;1.35;;;;;;;17.61;nan;102073.25;5031076;28;20107;-59
2022/09/19 08:26:58;;;;;;;7.00;1.88;;;;;;;17.66;nan;102073.97;5032287;28;20064;-61
2022/09/19 08:29:25;;;;;;;4.18;1.40;;;;;;;17.39;nan;102070.59;5032844;28;20030;-61
2022/09/19 08:31:51;;;;;;;4.85;1.30;;;;;;;16.89;nan;102072.63;5031661;28;20053;-60
2022/09/19 08:34:16;;;;;;;7.38;1.50;;;;;;;16.01;nan;102012.16;5030435;28;20068;-61
2022/09/19 08:36:42;;;;;;;6.53;1.40;;;;;;;16.11;nan;102071.13;5031250;28;20065;-61
2022/09/19 08:39:07;;;;;;;5.55;1.20;;;;;;;16.03;nan;102068.72;5032492;28;20041;-60
2022/09/19 08:41:48;;;;;;;4.28;1.30;;;;;;;15.80;nan;102018.22;5031212;28;20648;-60
2022/09/19 08:44:55;;;;;;;7.57;1.83;;;;;;;15.86;nan;102070.25;5030866;28;20319;-60
2022/09/19 08:47:22;;;;;;;6.90;1.02;;;;;;;15.61;nan;102011.84;4990153;28;20065;-61
2022/09/19 08:50:14;;;;;;;6.57;1.40;;;;;;;15.81;nan;102073.06;5037045;28;20046;-62
2022/09/19 08:52:49;;;;;;;8.88;2.10;;;;;;;15.83;nan;102079.19;5031978;28;20542;-61
2022/09/19 08:55:27;;;;;;;8.65;1.65;;;;;;;15.97;nan;102079.56;5030524;28;20056;-61
2022/09/19 08:58:00;;;;;;;10.93;1.90;;;;;;;16.11;nan;102063.16;5030717;28;20037;-60
2022/09/19 09:00:30;;;;;;;6.15;1.13;;;;;;;16.53;nan;102077.53;5030575;28;20034;-60
2022/09/19 09:02:59;;;;;;;7.07;1.55;;;;;;;16.43;nan;102038.06;5029987;28;20040;-61
2022/09/19 09:05:59;;;;;;;5.13;1.23;;;;;;;16.62;nan;102084.31;5031188;28;20065;-61
2022/09/19 09:08:52;;;;;;;5.38;0.98;;;;;;;16.49;nan;102085.69;5032198;28;20037;-63
2022/09/19 09:11:42;;;;;;;4.65;1.17;;;;;;;16.50;nan;102085.59;5031911;28;20120;-61
2022/09/19 09:14:41;;;;;;;5.17;1.63;;;;;;;16.81;nan;102086.22;5031517;28;20149;-65
2022/09/19 09:17:25;;;;;;;9.25;1.40;;;;;;;16.84;nan;102032.06;5031498;28;20560;-63
2022/09/19 09:19:50;;;;;;;5.88;1.25;;;;;;;17.35;nan;102103.59;5030345;28;20034;-61
2022/09/19 09:22:29;;;;;;;8.20;1.70;;;;;;;17.17;nan;102093.69;5031578;28;20033;-59
2022/09/19 09:25:08;;;;;;;6.93;1.08;;;;;;;16.83;nan;102078.19;5029499;28;20073;-61
2022/09/19 09:27:44;;;;;;;4.72;1.23;;;;;;;16.79;nan;102029.56;5029918;28;20044;-60
2022/09/19 09:30:16;;;;;;;4.50;1.27;;;;;;;16.91;nan;102046.84;5028465;28;20394;-60
2022/09/19 09:32:47;;;;;;;6.35;1.67;;;;;;;17.09;nan;102095.78;5031251;28;20067;-61
2022/09/19 09:35:30;;;;;;;10.13;1.85;;;;;;;17.13;nan;102094.75;5013972;28;20037;-60
2022/09/19 09:38:02;;;;;;;8.18;1.23;;;;;;;16.80;nan;102097.78;5031369;28;20037;-60
2022/09/19 09:43:37;;;;;;;8.95;1.38;;;;;;;18.15;nan;102088.69;5031192;28;20072;-61
2022/09/19 09:46:08;;;;;;;6.20;1.17;;;;;;;18.73;nan;102132.28;5029521;28;20037;-59
2022/09/19 09:48:36;;;;;;;3.45;1.15;;;;;;;19.29;nan;102108.28;5028519;28;20032;-61
2022/09/19 09:51:28;;;;;;;8.10;2.10;;;;;;;20.04;nan;102125.84;5029353;28;20037;-59
2022/09/19 09:57:33;;;;;;;5.55;1.30;;;;;;;19.26;nan;102127.97;5029782;28;20106;-63
2022/09/19 10:05:59;;;;;;;5.30;1.23;;;;;;;20.22;nan;102110.66;5032771;28;20052;-60
2022/09/19 10:08:39;;;;;;;4.15;1.50;;;;;;;19.19;nan;102082.94;5030922;28;20041;-60
2022/09/19 10:11:18;;;;;;;5.85;1.38;;;;;;;18.93;nan;102132.22;5029969;28;20160;-64
2022/09/19 10:14:04;;;;;;;4.38;1.50;;;;;;;19.03;nan;102133.53;5029003;28;20100;-63
2022/09/19 10:16:34;;;;;;;4.20;1.13;;;;;;;18.69;nan;102120.00;5030575;28;20026;-62
2022/09/19 10:19:04;;;;;;;5.10;1.23;;;;;;;18.48;nan;102079.16;5032576;28;20064;-63
2022/09/19 10:21:30;;;;;;;4.22;1.10;;;;;;;18.20;nan;102131.97;5033129;28;20025;-62
2022/09/19 10:23:56;;;;;;;2.88;0.77;;;;;;;17.78;nan;102060.09;5033832;28;20595;-61
2022/09/19 10:26:27;;;;;;;6.90;1.08;;;;;;;17.72;nan;102068.34;5033476;28;20063;-60
2022/09/19 10:28:59;;;;;;;6.88;1.40;;;;;;;18.05;nan;102080.22;5034544;28;20082;-63
2022/09/19 10:31:38;;;;;;;7.00;1.40;;;;;;;18.69;nan;102072.88;5034420;28;20457;-61
2022/09/19 10:34:06;;;;;;;4.55;0.95;;;;;;;19.93;nan;102120.19;5032917;28;20030;-61
2022/09/19 10:36:33;;;;;;;3.80;0.90;;;;;;;19.93;nan;102146.03;5033437;28;20063;-60
2022/09/19 10:39:03;;;;;;;4.95;1.00;;;;;;;19.85;nan;102090.28;5034376;28;20481;-62
2022/09/19 10:41:30;;;;;;;5.40;1.63;;;;;;;19.81;nan;102082.53;5033218;28;20041;-60
2022/09/19 10:43:58;;;;;;;4.30;1.00;;;;;;;19.47;nan;102092.22;5049306;28;20489;-60
2022/09/19 10:46:31;;;;;;;5.32;1.15;;;;;;;19.43;nan;102082.66;5034537;28;20107;-61
2022/09/19 10:48:57;;;;;;;5.18;1.10;;;;;;;19.93;nan;102092.59;5032770;28;20047;-62
2022/09/19 10:51:43;;;;;;;6.35;1.20;;;;;;;20.50;nan;102139.50;5032904;28;20069;-62
2022/09/19 10:54:24;;;;;;;4.43;1.02;;;;;;;20.62;nan;102090.69;5032173;28;20049;-60
2022/09/19 10:56:49;;;;;;;3.97;1.02;;;;;;;21.28;nan;102139.66;5034002;28;20030;-60
2022/09/19 10:59:27;;;;;;;3.78;1.23;;;;;;;21.75;nan;102140.47;5033891;28;20053;-61
2022/09/19 11:02:23;;;;;;;3.85;1.17;;;;;;;21.31;nan;102142.16;5033922;28;20032;-61
2022/09/19 11:04:59;;;;;;;4.85;1.00;;;;;;;20.34;nan;102069.06;5032967;28;20107;-61
2022/09/19 11:07:27;;;;;;;4.53;1.13;;;;;;;20.83;nan;102127.00;5034203;28;20493;-61
2022/09/19 11:09:59;;;;;;;4.53;1.10;;;;;;;19.80;nan;102139.56;5034018;28;20110;-61
2022/09/19 11:12:24;;;;;;;4.28;1.48;;;;;;;19.54;nan;102131.06;5032636;28;20052;-60
2022/09/19 11:14:50;;;;;;;3.45;1.15;;;;;;;19.21;nan;102145.13;5034089;28;20041;-62
2022/09/19 11:17:31;;;;;;;5.50;1.17;;;;;;;18.73;nan;102084.28;5033873;28;20042;-60
2022/09/19 11:20:05;;;;;;;6.50;1.27;;;;;;;18.88;nan;102139.59;5033030;28;20503;-61
2022/09/19 11:22:36;;;;;;;4.90;1.02;;;;;;;18.26;nan;102132.59;5033816;28;20036;-62
2022/09/19 11:25:25;;;;;;;5.50;1.55;;;;;;;17.86;nan;102133.41;5032410;28;20041;-61
2022/09/19 11:28:18;;;;;;;6.32;1.15;;;;;;;17.93;nan;102124.25;5032344;28;20392;-61
2022/09/19 11:31:05;;;;;;;5.55;1.13;;;;;;;18.86;nan;102139.66;5033478;28;20033;-63
2022/09/19 11:33:58;;;;;;;3.75;1.13;;;;;;;20.36;nan;102144.72;5032566;28;20049;-61
2022/09/19 11:36:31;;;;;;;6.20;0.93;;;;;;;21.75;nan;102094.03;5032051;28;20083;-61
2022/09/19 11:39:12;;;;;;;2.90;0.77;;;;;;;22.76;nan;102065.47;5029339;28;20060;-60
2022/09/19 11:42:05;;;;;;;3.05;0.98;;;;;;;23.76;nan;102169.06;5031518;28;20095;-62
2022/09/19 11:44:47;;;;;;;5.40;1.00;;;;;;;22.76;nan;102149.56;5031101;28;20508;-64
2022/09/19 11:47:50;;;;;;;6.20;1.42;;;;;;;22.48;nan;102157.53;5031651;28;20041;-62
2022/09/19 11:50:29;;;;;;;5.82;1.10;;;;;;;22.50;nan;102152.97;5031852;28;20390;-62
2022/09/19 11:52:58;;;;;;;6.82;1.38;;;;;;;22.28;nan;102147.16;5031449;28;20029;-62
2022/09/19 11:55:46;;;;;;;5.50;1.25;;;;;;;23.90;nan;102145.66;5032117;28;20032;-65
2022/09/19 11:58:24;;;;;;;3.97;1.40;;;;;;;24.00;nan;102159.34;5032204;28;20041;-62
2022/09/19 12:01:25;;;;;;;4.85;0.93;;;;;;;22.28;nan;102158.78;5032725;28;20041;-63
2022/09/19 12:04:09;;;;;;;7.07;1.30;;;;;;;20.31;nan;102120.91;5016907;28;20041;-63
2022/09/19 12:06:47;;;;;;;5.93;1.23;;;;;;;18.76;nan;102145.47;5031874;28;20039;-62
2022/09/19 12:09:25;;;;;;;3.28;1.13;;;;;;;18.28;nan;102125.38;5032189;28;20387;-62
2022/09/19 12:11:56;;;;;;;5.63;1.50;;;;;;;17.92;nan;102121.66;5032912;28;20508;-64
2022/09/19 12:14:23;;;;;;;;;;;;;;;18.16;nan;102093.94;5032112;28;20571;-61
2022/09/19 12:16:55;;;;;;;8.70;1.67;;;;;;;18.04;nan;102057.16;5032635;28;19909;-60
2022/09/19 12:19:27;;;;;;;7.32;1.20;;;;;;;18.20;nan;102097.34;5031124;28;20038;-60